sensor_id;sensor_type;location;lat;lon;timestamp;temperature;humidity
64939;DHT22;51453;47.738;7.420;2023-11-19T00:02:08;8.20;99.90
64939;DHT22;51453;47.738;7.420;2023-11-19T00:04:38;8.50;99.90
64939;DHT22;51453;47.738;7.420;2023-11-19T00:07:06;8.70;99.90
64939;DHT22;51453;47.738;7.420;2023-11-19T00:09:36;8.80;99.90
64939;DHT22;51453;47.738;7.420;2023-11-19T00:12:04;8.90;99.90
64939;DHT22;51453;47.738;7.420;2023-11-19T00:14:30;9.10;99.90
64939;DHT22;51453;47.738;7.420;2023-11-19T00:16:56;9.10;99.90
64939;DHT22;51453;47.738;7.420;2023-11-19T00:19:22;9.20;99.90
64939;DHT22;51453;47.738;7.420;2023-11-19T00:21:47;9.30;99.90
64939;DHT22;51453;47.738;7.420;2023-11-19T00:24:13;9.40;99.90
64939;DHT22;51453;47.738;7.420;2023-11-19T00:26:42;9.50;99.90
64939;DHT22;51453;47.738;7.420;2023-11-19T00:29:07;9.60;99.90
64939;DHT22;51453;47.738;7.420;2023-11-19T00:31:33;9.70;99.90
64939;DHT22;51453;47.738;7.420;2023-11-19T00:33:59;9.80;99.90
64939;DHT22;51453;47.738;7.420;2023-11-19T00:36:24;9.90;99.90
64939;DHT22;51453;47.738;7.420;2023-11-19T00:38:51;9.90;99.90
64939;DHT22;51453;47.738;7.420;2023-11-19T00:41:18;9.90;99.90
64939;DHT22;51453;47.738;7.420;2023-11-19T00:43:44;9.90;99.90
64939;DHT22;51453;47.738;7.420;2023-11-19T00:46:09;10.00;99.90
64939;DHT22;51453;47.738;7.420;2023-11-19T00:48:36;10.00;99.90
64939;DHT22;51453;47.738;7.420;2023-11-19T00:51:02;10.10;99.90
64939;DHT22;51453;47.738;7.420;2023-11-19T00:53:29;10.00;99.90
64939;DHT22;51453;47.738;7.420;2023-11-19T00:55:55;10.00;99.90
64939;DHT22;51453;47.738;7.420;2023-11-19T00:58:21;10.10;99.90
64939;DHT22;51453;47.738;7.420;2023-11-19T01:00:47;10.10;99.90
64939;DHT22;51453;47.738;7.420;2023-11-19T01:03:12;10.10;99.90
64939;DHT22;51453;47.738;7.420;2023-11-19T01:05:38;10.10;99.90
64939;DHT22;51453;47.738;7.420;2023-11-19T01:08:04;10.10;99.90
64939;DHT22;51453;47.738;7.420;2023-11-19T01:10:30;10.10;99.90
64939;DHT22;51453;47.738;7.420;2023-11-19T01:12:56;10.10;99.90
64939;DHT22;51453;47.738;7.420;2023-11-19T01:15:22;10.10;99.90
64939;DHT22;51453;47.738;7.420;2023-11-19T01:17:48;10.10;99.90
64939;DHT22;51453;47.738;7.420;2023-11-19T01:20:14;10.10;99.90
64939;DHT22;51453;47.738;7.420;2023-11-19T01:22:40;10.10;99.90
64939;DHT22;51453;47.738;7.420;2023-11-19T01:25:06;10.10;99.90
64939;DHT22;51453;47.738;7.420;2023-11-19T01:27:32;10.10;99.90
64939;DHT22;51453;47.738;7.420;2023-11-19T01:30:00;10.00;99.90
64939;DHT22;51453;47.738;7.420;2023-11-19T01:32:29;10.00;99.90
64939;DHT22;51453;47.738;7.420;2023-11-19T01:34:55;9.90;99.90
64939;DHT22;51453;47.738;7.420;2023-11-19T01:37:20;10.00;99.90
64939;DHT22;51453;47.738;7.420;2023-11-19T01:39:46;9.90;99.90
64939;DHT22;51453;47.738;7.420;2023-11-19T01:42:12;9.90;99.90
64939;DHT22;51453;47.738;7.420;2023-11-19T01:44:37;9.80;99.90
64939;DHT22;51453;47.738;7.420;2023-11-19T01:47:03;9.80;99.90
64939;DHT22;51453;47.738;7.420;2023-11-19T01:49:31;9.80;99.90
64939;DHT22;51453;47.738;7.420;2023-11-19T01:51:57;9.80;99.90
64939;DHT22;51453;47.738;7.420;2023-11-19T01:54:24;9.90;99.90
64939;DHT22;51453;47.738;7.420;2023-11-19T01:56:49;9.90;99.90
64939;DHT22;51453;47.738;7.420;2023-11-19T01:59:16;9.90;99.90
64939;DHT22;51453;47.738;7.420;2023-11-19T02:01:42;9.80;99.90
64939;DHT22;51453;47.738;7.420;2023-11-19T02:04:08;9.90;99.90
64939;DHT22;51453;47.738;7.420;2023-11-19T02:06:36;9.80;99.90
64939;DHT22;51453;47.738;7.420;2023-11-19T02:09:02;9.80;99.90
64939;DHT22;51453;47.738;7.420;2023-11-19T02:11:36;9.80;99.90
64939;DHT22;51453;47.738;7.420;2023-11-19T02:14:01;9.80;99.90
64939;DHT22;51453;47.738;7.420;2023-11-19T02:16:29;9.80;99.90
64939;DHT22;51453;47.738;7.420;2023-11-19T02:18:55;9.80;99.90
64939;DHT22;51453;47.738;7.420;2023-11-19T02:21:20;9.90;99.90
64939;DHT22;51453;47.738;7.420;2023-11-19T02:23:46;9.90;99.90
64939;DHT22;51453;47.738;7.420;2023-11-19T02:28:44;10.10;99.90
64939;DHT22;51453;47.738;7.420;2023-11-19T02:31:10;10.10;99.90
64939;DHT22;51453;47.738;7.420;2023-11-19T02:33:37;10.10;99.90
64939;DHT22;51453;47.738;7.420;2023-11-19T02:36:07;10.10;99.90
64939;DHT22;51453;47.738;7.420;2023-11-19T02:38:34;10.10;99.90
64939;DHT22;51453;47.738;7.420;2023-11-19T02:41:02;10.20;99.90
64939;DHT22;51453;47.738;7.420;2023-11-19T02:43:30;10.20;99.90
64939;DHT22;51453;47.738;7.420;2023-11-19T02:46:02;10.20;99.90
64939;DHT22;51453;47.738;7.420;2023-11-19T02:48:28;10.30;99.90
64939;DHT22;51453;47.738;7.420;2023-11-19T02:50:53;10.30;99.90
64939;DHT22;51453;47.738;7.420;2023-11-19T02:53:19;10.30;99.90
64939;DHT22;51453;47.738;7.420;2023-11-19T02:55:47;10.30;99.90
64939;DHT22;51453;47.738;7.420;2023-11-19T02:58:14;10.30;99.90
64939;DHT22;51453;47.738;7.420;2023-11-19T03:00:50;10.30;99.90
64939;DHT22;51453;47.738;7.420;2023-11-19T03:03:34;10.30;99.90
64939;DHT22;51453;47.738;7.420;2023-11-19T03:06:07;10.30;99.90
64939;DHT22;51453;47.738;7.420;2023-11-19T03:08:35;10.30;99.90
64939;DHT22;51453;47.738;7.420;2023-11-19T03:11:01;10.30;99.90
64939;DHT22;51453;47.738;7.420;2023-11-19T03:13:27;10.40;99.90
64939;DHT22;51453;47.738;7.420;2023-11-19T03:15:53;10.40;99.90
64939;DHT22;51453;47.738;7.420;2023-11-19T03:18:20;10.50;99.90
64939;DHT22;51453;47.738;7.420;2023-11-19T03:20:48;10.50;99.90
64939;DHT22;51453;47.738;7.420;2023-11-19T03:23:15;10.50;99.90
64939;DHT22;51453;47.738;7.420;2023-11-19T03:25:40;10.50;99.90
64939;DHT22;51453;47.738;7.420;2023-11-19T03:28:06;10.50;99.90
64939;DHT22;51453;47.738;7.420;2023-11-19T03:30:32;10.50;99.90
64939;DHT22;51453;47.738;7.420;2023-11-19T03:32:58;10.50;99.90
64939;DHT22;51453;47.738;7.420;2023-11-19T03:35:25;10.50;99.90
64939;DHT22;51453;47.738;7.420;2023-11-19T03:37:51;10.60;99.90
64939;DHT22;51453;47.738;7.420;2023-11-19T03:40:17;10.60;99.90
64939;DHT22;51453;47.738;7.420;2023-11-19T03:42:47;10.60;99.90
64939;DHT22;51453;47.738;7.420;2023-11-19T03:45:13;10.70;99.90
64939;DHT22;51453;47.738;7.420;2023-11-19T03:47:39;10.70;99.90
64939;DHT22;51453;47.738;7.420;2023-11-19T03:50:06;10.70;99.90
64939;DHT22;51453;47.738;7.420;2023-11-19T03:52:32;10.80;99.90
64939;DHT22;51453;47.738;7.420;2023-11-19T03:54:59;10.90;99.90
64939;DHT22;51453;47.738;7.420;2023-11-19T03:57:24;10.90;99.90
64939;DHT22;51453;47.738;7.420;2023-11-19T03:59:50;11.00;99.90
64939;DHT22;51453;47.738;7.420;2023-11-19T04:02:16;11.00;99.90
64939;DHT22;51453;47.738;7.420;2023-11-19T04:04:42;11.10;99.90
64939;DHT22;51453;47.738;7.420;2023-11-19T04:07:07;11.00;99.90
64939;DHT22;51453;47.738;7.420;2023-11-19T04:09:33;11.10;99.90
64939;DHT22;51453;47.738;7.420;2023-11-19T04:12:00;11.10;99.90
64939;DHT22;51453;47.738;7.420;2023-11-19T04:14:26;11.10;99.90
64939;DHT22;51453;47.738;7.420;2023-11-19T04:16:51;11.20;99.90
64939;DHT22;51453;47.738;7.420;2023-11-19T04:19:18;11.20;99.90
64939;DHT22;51453;47.738;7.420;2023-11-19T04:21:43;11.20;99.90
64939;DHT22;51453;47.738;7.420;2023-11-19T04:24:10;11.10;99.90
64939;DHT22;51453;47.738;7.420;2023-11-19T04:26:43;11.20;99.90
64939;DHT22;51453;47.738;7.420;2023-11-19T04:29:15;11.20;99.90
64939;DHT22;51453;47.738;7.420;2023-11-19T04:31:45;11.20;99.90
64939;DHT22;51453;47.738;7.420;2023-11-19T04:34:11;11.30;99.90
64939;DHT22;51453;47.738;7.420;2023-11-19T04:36:37;11.30;99.90
64939;DHT22;51453;47.738;7.420;2023-11-19T04:39:03;11.30;99.90
64939;DHT22;51453;47.738;7.420;2023-11-19T04:41:58;11.30;99.90
64939;DHT22;51453;47.738;7.420;2023-11-19T04:44:24;11.40;99.90
64939;DHT22;51453;47.738;7.420;2023-11-19T04:46:50;11.40;99.90
64939;DHT22;51453;47.738;7.420;2023-11-19T04:49:15;11.40;99.90
64939;DHT22;51453;47.738;7.420;2023-11-19T04:51:43;11.40;99.90
64939;DHT22;51453;47.738;7.420;2023-11-19T04:54:09;11.50;99.90
64939;DHT22;51453;47.738;7.420;2023-11-19T04:56:36;11.50;99.90
64939;DHT22;51453;47.738;7.420;2023-11-19T04:59:03;11.50;99.90
64939;DHT22;51453;47.738;7.420;2023-11-19T05:01:28;11.50;99.90
64939;DHT22;51453;47.738;7.420;2023-11-19T05:03:56;11.50;99.90
64939;DHT22;51453;47.738;7.420;2023-11-19T05:06:28;11.50;99.90
64939;DHT22;51453;47.738;7.420;2023-11-19T05:08:55;11.50;99.90
64939;DHT22;51453;47.738;7.420;2023-11-19T05:11:21;11.50;99.90
64939;DHT22;51453;47.738;7.420;2023-11-19T05:13:47;11.50;99.90
64939;DHT22;51453;47.738;7.420;2023-11-19T05:16:12;11.60;99.90
64939;DHT22;51453;47.738;7.420;2023-11-19T05:18:41;11.60;99.90
64939;DHT22;51453;47.738;7.420;2023-11-19T05:21:07;11.60;99.90
64939;DHT22;51453;47.738;7.420;2023-11-19T05:23:33;11.60;99.90
64939;DHT22;51453;47.738;7.420;2023-11-19T05:26:02;11.60;99.90
64939;DHT22;51453;47.738;7.420;2023-11-19T05:28:27;11.60;99.90
64939;DHT22;51453;47.738;7.420;2023-11-19T05:30:53;11.70;99.90
64939;DHT22;51453;47.738;7.420;2023-11-19T05:33:19;11.60;99.90
64939;DHT22;51453;47.738;7.420;2023-11-19T05:35:45;11.70;99.90
64939;DHT22;51453;47.738;7.420;2023-11-19T05:38:11;11.70;99.90
64939;DHT22;51453;47.738;7.420;2023-11-19T05:40:36;11.70;99.90
64939;DHT22;51453;47.738;7.420;2023-11-19T05:43:04;11.70;99.90
64939;DHT22;51453;47.738;7.420;2023-11-19T05:45:29;11.70;99.90
64939;DHT22;51453;47.738;7.420;2023-11-19T05:47:55;11.80;99.90
64939;DHT22;51453;47.738;7.420;2023-11-19T05:50:20;11.80;99.90
64939;DHT22;51453;47.738;7.420;2023-11-19T05:52:46;11.80;99.90
64939;DHT22;51453;47.738;7.420;2023-11-19T05:55:12;11.80;99.90
64939;DHT22;51453;47.738;7.420;2023-11-19T05:57:39;11.80;99.90
64939;DHT22;51453;47.738;7.420;2023-11-19T06:00:08;11.80;99.90
64939;DHT22;51453;47.738;7.420;2023-11-19T06:02:36;11.90;99.90
64939;DHT22;51453;47.738;7.420;2023-11-19T06:05:04;11.90;99.90
64939;DHT22;51453;47.738;7.420;2023-11-19T06:07:31;11.90;99.90
64939;DHT22;51453;47.738;7.420;2023-11-19T06:09:57;11.90;99.90
64939;DHT22;51453;47.738;7.420;2023-11-19T06:12:22;11.90;99.90
64939;DHT22;51453;47.738;7.420;2023-11-19T06:14:48;11.90;99.90
64939;DHT22;51453;47.738;7.420;2023-11-19T06:17:14;11.90;99.90
64939;DHT22;51453;47.738;7.420;2023-11-19T06:19:39;12.00;99.90
64939;DHT22;51453;47.738;7.420;2023-11-19T06:22:05;12.00;99.90
64939;DHT22;51453;47.738;7.420;2023-11-19T06:24:31;12.00;99.90
64939;DHT22;51453;47.738;7.420;2023-11-19T06:26:56;12.00;99.90
64939;DHT22;51453;47.738;7.420;2023-11-19T06:29:22;12.00;99.90
64939;DHT22;51453;47.738;7.420;2023-11-19T06:31:47;12.00;99.90
64939;DHT22;51453;47.738;7.420;2023-11-19T06:34:14;12.00;99.90
64939;DHT22;51453;47.738;7.420;2023-11-19T06:36:40;11.90;99.90
64939;DHT22;51453;47.738;7.420;2023-11-19T06:39:06;11.90;99.90
64939;DHT22;51453;47.738;7.420;2023-11-19T06:41:31;12.00;99.90
64939;DHT22;51453;47.738;7.420;2023-11-19T06:43:57;12.00;99.90
64939;DHT22;51453;47.738;7.420;2023-11-19T06:46:23;12.00;99.90
64939;DHT22;51453;47.738;7.420;2023-11-19T06:48:49;12.00;99.90
64939;DHT22;51453;47.738;7.420;2023-11-19T06:51:15;12.10;99.90
64939;DHT22;51453;47.738;7.420;2023-11-19T06:53:42;12.00;99.90
64939;DHT22;51453;47.738;7.420;2023-11-19T06:56:23;12.00;99.90
64939;DHT22;51453;47.738;7.420;2023-11-19T06:58:49;12.00;99.90
64939;DHT22;51453;47.738;7.420;2023-11-19T07:01:16;12.00;99.90
64939;DHT22;51453;47.738;7.420;2023-11-19T07:03:42;12.00;99.90
64939;DHT22;51453;47.738;7.420;2023-11-19T07:06:08;12.00;99.90
64939;DHT22;51453;47.738;7.420;2023-11-19T07:08:34;12.00;99.90
64939;DHT22;51453;47.738;7.420;2023-11-19T07:11:00;12.10;99.90
64939;DHT22;51453;47.738;7.420;2023-11-19T07:13:25;12.00;99.90
64939;DHT22;51453;47.738;7.420;2023-11-19T07:15:53;12.00;99.90
64939;DHT22;51453;47.738;7.420;2023-11-19T07:18:19;12.10;99.90
64939;DHT22;51453;47.738;7.420;2023-11-19T07:20:47;12.10;99.90
64939;DHT22;51453;47.738;7.420;2023-11-19T07:23:13;12.10;99.90
64939;DHT22;51453;47.738;7.420;2023-11-19T07:25:42;12.10;99.90
64939;DHT22;51453;47.738;7.420;2023-11-19T07:28:08;12.10;99.90
64939;DHT22;51453;47.738;7.420;2023-11-19T07:30:35;12.10;99.90
64939;DHT22;51453;47.738;7.420;2023-11-19T07:33:01;12.10;99.90
64939;DHT22;51453;47.738;7.420;2023-11-19T07:35:29;12.10;99.90
64939;DHT22;51453;47.738;7.420;2023-11-19T07:37:56;12.10;99.90
64939;DHT22;51453;47.738;7.420;2023-11-19T07:40:23;12.10;99.90
64939;DHT22;51453;47.738;7.420;2023-11-19T07:42:48;12.10;99.90
64939;DHT22;51453;47.738;7.420;2023-11-19T07:45:14;12.20;99.90
64939;DHT22;51453;47.738;7.420;2023-11-19T07:47:40;12.10;99.90
64939;DHT22;51453;47.738;7.420;2023-11-19T07:50:06;12.10;99.90
64939;DHT22;51453;47.738;7.420;2023-11-19T07:52:32;12.20;99.90
64939;DHT22;51453;47.738;7.420;2023-11-19T07:54:57;12.30;99.90
64939;DHT22;51453;47.738;7.420;2023-11-19T07:57:23;12.40;99.90
64939;DHT22;51453;47.738;7.420;2023-11-19T07:59:49;12.30;99.90
64939;DHT22;51453;47.738;7.420;2023-11-19T08:02:15;12.30;99.90
64939;DHT22;51453;47.738;7.420;2023-11-19T08:04:41;12.30;99.90
64939;DHT22;51453;47.738;7.420;2023-11-19T08:07:10;12.30;99.90
64939;DHT22;51453;47.738;7.420;2023-11-19T08:09:36;12.40;99.90
64939;DHT22;51453;47.738;7.420;2023-11-19T08:12:03;12.50;99.90
64939;DHT22;51453;47.738;7.420;2023-11-19T08:14:29;12.50;99.90
64939;DHT22;51453;47.738;7.420;2023-11-19T08:16:54;12.50;99.90
64939;DHT22;51453;47.738;7.420;2023-11-19T08:19:20;12.50;99.90
64939;DHT22;51453;47.738;7.420;2023-11-19T08:21:46;12.60;99.90
64939;DHT22;51453;47.738;7.420;2023-11-19T08:24:11;12.60;99.90
64939;DHT22;51453;47.738;7.420;2023-11-19T08:26:37;12.60;99.90
64939;DHT22;51453;47.738;7.420;2023-11-19T08:29:03;12.70;99.90
64939;DHT22;51453;47.738;7.420;2023-11-19T08:31:29;12.70;99.90
64939;DHT22;51453;47.738;7.420;2023-11-19T08:33:54;12.70;99.90
64939;DHT22;51453;47.738;7.420;2023-11-19T08:36:20;12.70;99.90
64939;DHT22;51453;47.738;7.420;2023-11-19T08:38:46;12.70;99.90
64939;DHT22;51453;47.738;7.420;2023-11-19T08:41:13;12.80;99.90
64939;DHT22;51453;47.738;7.420;2023-11-19T08:43:39;12.80;99.90
64939;DHT22;51453;47.738;7.420;2023-11-19T08:46:10;12.80;99.90
64939;DHT22;51453;47.738;7.420;2023-11-19T08:48:36;12.90;99.90
64939;DHT22;51453;47.738;7.420;2023-11-19T08:51:01;12.80;99.90
64939;DHT22;51453;47.738;7.420;2023-11-19T08:53:27;12.80;99.90
64939;DHT22;51453;47.738;7.420;2023-11-19T08:55:52;13.00;99.90
64939;DHT22;51453;47.738;7.420;2023-11-19T08:58:18;12.90;99.90
64939;DHT22;51453;47.738;7.420;2023-11-19T09:00:44;12.90;99.90
64939;DHT22;51453;47.738;7.420;2023-11-19T09:03:09;12.90;99.90
64939;DHT22;51453;47.738;7.420;2023-11-19T09:05:35;12.90;99.90
64939;DHT22;51453;47.738;7.420;2023-11-19T09:08:00;12.80;99.90
64939;DHT22;51453;47.738;7.420;2023-11-19T09:10:26;12.80;99.90
64939;DHT22;51453;47.738;7.420;2023-11-19T09:12:52;12.80;99.90
64939;DHT22;51453;47.738;7.420;2023-11-19T09:15:18;12.80;99.90
64939;DHT22;51453;47.738;7.420;2023-11-19T09:17:44;12.80;99.90
64939;DHT22;51453;47.738;7.420;2023-11-19T09:20:12;12.80;99.90
64939;DHT22;51453;47.738;7.420;2023-11-19T09:22:40;12.90;99.90
64939;DHT22;51453;47.738;7.420;2023-11-19T09:25:06;12.90;99.90
64939;DHT22;51453;47.738;7.420;2023-11-19T09:27:32;13.00;99.90
64939;DHT22;51453;47.738;7.420;2023-11-19T09:29:57;13.00;99.90
64939;DHT22;51453;47.738;7.420;2023-11-19T09:32:24;13.10;99.90
64939;DHT22;51453;47.738;7.420;2023-11-19T09:34:50;13.10;99.90
64939;DHT22;51453;47.738;7.420;2023-11-19T09:37:15;13.00;99.90
64939;DHT22;51453;47.738;7.420;2023-11-19T09:39:41;13.10;99.90
64939;DHT22;51453;47.738;7.420;2023-11-19T09:42:10;13.00;99.90
64939;DHT22;51453;47.738;7.420;2023-11-19T09:44:38;13.00;99.90
64939;DHT22;51453;47.738;7.420;2023-11-19T09:47:05;13.00;99.90
64939;DHT22;51453;47.738;7.420;2023-11-19T09:49:32;13.00;99.90
64939;DHT22;51453;47.738;7.420;2023-11-19T09:51:58;13.00;99.90
64939;DHT22;51453;47.738;7.420;2023-11-19T09:54:24;13.10;99.90
64939;DHT22;51453;47.738;7.420;2023-11-19T09:56:50;13.20;99.90
64939;DHT22;51453;47.738;7.420;2023-11-19T09:59:16;13.20;99.90
64939;DHT22;51453;47.738;7.420;2023-11-19T10:01:43;13.20;99.90
